Aviation Digital Data Service (ADDS)

Output produced by METARs form (1941 UTC 30 June 2015)
found at http://aviationweather.gov/adds/metars/
 
KEWR 301936Z 3020/0124 15012G19KT P6SM SCT050 BKN120 
     FM010000 15008KT P6SM SCT010 BKN050 BKN100 
     FM010400 14007KT 6SM BR VCSH FEW006 BKN010 
     TEMPO 0108/0112 SHRA 
     FM011200 23006KT 6SM -SHRA BR BKN012 BKN025 
     FM011500 24010KT P6SM SCT025 BKN040 
     FM011800 22015G21KT P6SM BKN050